createdAt,value
2023-03-11T00:04:42.617Z,8.80
2023-03-11T00:09:45.402Z,8.90
2023-03-11T00:14:48.077Z,9.00
2023-03-11T00:19:50.678Z,9.00
2023-03-11T00:24:53.232Z,9.00
2023-03-11T00:29:55.897Z,8.90
2023-03-11T00:34:58.687Z,8.80
2023-03-11T00:40:01.405Z,8.80
2023-03-11T00:45:05.104Z,8.70
2023-03-11T00:50:09.867Z,8.50
2023-03-11T00:55:15.752Z,8.40
2023-03-11T01:00:20.229Z,8.40
2023-03-11T01:05:26.605Z,8.60
2023-03-11T01:10:31.132Z,8.70
2023-03-11T01:15:36.890Z,8.70
2023-03-11T01:20:39.948Z,8.90
2023-03-11T01:25:42.750Z,8.90
2023-03-11T01:30:45.492Z,9.00
2023-03-11T01:35:49.585Z,9.00
2023-03-11T01:40:52.634Z,9.00
2023-03-11T01:45:55.199Z,9.10
2023-03-11T01:51:01.942Z,9.10
2023-03-11T01:56:06.674Z,9.10
2023-03-11T02:01:09.580Z,9.20
2023-03-11T02:06:16.252Z,9.10
2023-03-11T02:11:26.547Z,9.20
2023-03-11T02:16:29.682Z,9.10
2023-03-11T02:21:34.592Z,8.90
2023-03-11T02:26:52.742Z,8.80
2023-03-11T02:31:57.268Z,8.70
2023-03-11T02:37:00.734Z,8.50
2023-03-11T02:42:19.881Z,8.60
2023-03-11T02:47:23.128Z,8.50
2023-03-11T02:52:28.457Z,8.40
2023-03-11T02:57:31.480Z,8.40
2023-03-11T03:02:34.154Z,8.30
2023-03-11T03:07:37.784Z,8.20
2023-03-11T03:12:40.425Z,8.10
2023-03-11T03:17:43.204Z,8.00
2023-03-11T03:22:46.094Z,7.90
2023-03-11T03:27:51.794Z,7.80
2023-03-11T03:32:56.458Z,7.70
2023-03-11T03:37:59.455Z,7.70
2023-03-11T03:43:02.318Z,7.70
2023-03-11T03:48:07.415Z,7.60
2023-03-11T03:53:14.823Z,7.60
2023-03-11T03:58:18.187Z,7.60
2023-03-11T04:03:20.930Z,7.50
2023-03-11T04:08:29.979Z,7.40
2023-03-11T04:13:33.003Z,7.40
2023-03-11T04:18:36.079Z,7.30
2023-03-11T04:23:38.829Z,7.30
2023-03-11T04:28:43.082Z,7.20
2023-03-11T04:33:45.955Z,7.10
2023-03-11T04:38:49.195Z,7.10
2023-03-11T04:43:52.462Z,7.00
2023-03-11T04:48:55.473Z,7.00
2023-03-11T04:53:58.412Z,7.00
2023-03-11T04:59:03.518Z,6.90
2023-03-11T05:04:08.632Z,6.80
2023-03-11T05:09:11.654Z,6.60
2023-03-11T05:14:16.130Z,6.50
2023-03-11T05:19:36.897Z,6.40
2023-03-11T05:24:47.115Z,6.20
2023-03-11T05:29:50.364Z,6.00
2023-03-11T05:34:54.226Z,5.80
2023-03-11T05:39:57.184Z,5.70
2023-03-11T05:44:59.973Z,5.60
2023-03-11T05:50:04.335Z,5.50
2023-03-11T05:55:07.591Z,5.50
2023-03-11T06:00:14.146Z,5.40
2023-03-11T06:05:18.133Z,5.20
2023-03-11T06:10:22.844Z,4.80
2023-03-11T06:15:25.992Z,4.30
2023-03-11T06:20:29.672Z,4.10
2023-03-11T06:25:32.652Z,3.90
2023-03-11T06:30:36.154Z,3.90
2023-03-11T06:35:55.792Z,3.90
2023-03-11T06:41:04.227Z,4.00
2023-03-11T06:46:10.512Z,4.00
2023-03-11T06:51:14.917Z,4.10
2023-03-11T06:56:18.791Z,4.00
2023-03-11T07:01:28.381Z,3.90
2023-03-11T07:06:33.106Z,3.90
2023-03-11T07:11:48.358Z,3.90
2023-03-11T07:16:58.722Z,3.80
2023-03-11T07:22:12.482Z,3.70
2023-03-11T07:27:15.636Z,3.70
2023-03-11T07:32:19.035Z,3.60
2023-03-11T07:37:21.839Z,3.40
2023-03-11T07:42:24.504Z,3.00
2023-03-11T07:47:28.464Z,2.90
2023-03-11T07:52:32.853Z,2.80
2023-03-11T07:57:35.775Z,2.70
2023-03-11T08:02:38.527Z,2.60
2023-03-11T08:07:41.250Z,2.50
2023-03-11T08:12:43.952Z,3.00
2023-03-11T08:17:46.844Z,2.50
2023-03-11T08:22:57.961Z,2.30
2023-03-11T08:28:01.046Z,2.50
2023-03-11T08:33:04.302Z,2.60
2023-03-11T08:38:07.097Z,2.90
2023-03-11T08:43:13.967Z,3.20
2023-03-11T08:48:16.961Z,3.30
2023-03-11T08:53:20.124Z,3.40
2023-03-11T08:58:22.850Z,3.60
2023-03-11T09:03:25.817Z,3.60
2023-03-11T09:08:29.498Z,3.40
2023-03-11T09:13:33.266Z,3.20
2023-03-11T09:18:36.202Z,3.10
2023-03-11T09:23:40.307Z,3.20
2023-03-11T09:28:47.307Z,3.20
2023-03-11T09:39:34.473Z,3.00
2023-03-11T09:44:40.443Z,2.90
2023-03-11T09:49:55.173Z,2.90
2023-03-11T09:55:00.138Z,2.90
2023-03-11T10:05:45.451Z,2.90
2023-03-11T10:10:56.481Z,2.60
2023-03-11T10:16:05.801Z,2.70
2023-03-11T10:21:17.648Z,2.60
2023-03-11T10:26:25.931Z,2.60
2023-03-11T10:37:48.266Z,2.70
2023-03-11T10:42:54.403Z,2.40
2023-03-11T10:47:58.421Z,2.40
2023-03-11T10:53:16.261Z,2.30
2023-03-11T10:58:24.117Z,2.10
2023-03-11T11:03:27.110Z,2.00
2023-03-11T11:08:30.436Z,1.80
2023-03-11T11:13:34.931Z,1.80
2023-03-11T11:18:47.163Z,1.80
2023-03-11T11:24:04.854Z,1.50
2023-03-11T11:29:10.804Z,1.40
2023-03-11T11:34:32.410Z,1.30
2023-03-11T11:39:52.174Z,1.20
2023-03-11T11:45:11.246Z,1.20
2023-03-11T11:50:52.932Z,1.20
2023-03-11T11:55:55.922Z,1.10
2023-03-11T12:01:15.449Z,1.10
2023-03-11T12:06:40.842Z,1.10
2023-03-11T12:12:14.090Z,1.10
2023-03-11T12:17:20.029Z,1.00
2023-03-11T12:22:41.078Z,1.00
2023-03-11T12:28:01.704Z,0.90
2023-03-11T12:33:09.525Z,0.80
2023-03-11T12:38:33.200Z,0.80
2023-03-11T12:43:36.099Z,0.70
2023-03-11T12:49:08.057Z,0.80
2023-03-11T12:54:32.655Z,0.90
2023-03-11T13:00:17.780Z,1.00
2023-03-11T13:05:42.103Z,1.00
2023-03-11T13:10:52.861Z,1.00
2023-03-11T13:15:55.847Z,1.00
2023-03-11T13:21:00.482Z,1.10
2023-03-11T13:26:16.709Z,1.30
2023-03-11T13:31:42.479Z,1.30
2023-03-11T13:37:00.551Z,1.30
2023-03-11T13:42:05.909Z,1.40
2023-03-11T13:47:15.636Z,1.30
2023-03-11T13:52:49.357Z,1.20
2023-03-11T13:57:54.601Z,0.90
2023-03-11T14:03:03.462Z,1.00
2023-03-11T14:08:12.557Z,1.00
2023-03-11T14:13:18.337Z,1.00
2023-03-11T14:18:41.447Z,0.90
2023-03-11T14:23:47.366Z,1.00
2023-03-11T14:28:56.259Z,1.00
2023-03-11T14:34:04.819Z,1.00
2023-03-11T14:39:26.887Z,1.00
2023-03-11T14:44:33.165Z,1.00
2023-03-11T14:49:36.381Z,0.90
2023-03-11T14:54:39.611Z,1.10
2023-03-11T14:59:44.052Z,0.90
2023-03-11T15:04:47.339Z,0.80
2023-03-11T15:09:50.319Z,0.70
2023-03-11T15:14:52.999Z,0.70
2023-03-11T15:19:56.415Z,0.70
2023-03-11T15:25:01.114Z,0.60
2023-03-11T15:30:26.781Z,0.60
2023-03-11T15:35:31.129Z,0.60
2023-03-11T15:40:44.999Z,0.70
2023-03-11T15:45:49.363Z,0.70
2023-03-11T15:50:57.042Z,0.70
2023-03-11T15:56:08.271Z,0.60
2023-03-11T16:01:11.461Z,0.60
2023-03-11T16:06:14.273Z,0.60
2023-03-11T16:11:19.041Z,0.50
2023-03-11T16:16:23.337Z,0.50
2023-03-11T16:21:35.352Z,0.50
2023-03-11T16:26:38.196Z,0.50
2023-03-11T16:36:01.743Z,0.50
2023-03-11T16:41:04.690Z,0.50
2023-03-11T16:46:07.477Z,0.40
2023-03-11T16:51:10.304Z,0.40
2023-03-11T16:56:13.032Z,0.40
2023-03-11T17:01:18.192Z,0.40
2023-03-11T17:06:22.090Z,0.40
2023-03-11T17:11:28.603Z,0.30
2023-03-11T17:16:34.034Z,0.30
2023-03-11T17:21:36.783Z,0.30
2023-03-11T17:26:39.663Z,0.20
2023-03-11T17:31:42.569Z,0.30
2023-03-11T17:36:45.550Z,0.20
2023-03-11T17:41:49.056Z,0.30
2023-03-11T17:46:52.049Z,0.30
2023-03-11T17:51:55.046Z,0.30
2023-03-11T17:56:57.944Z,0.20
2023-03-11T18:02:00.856Z,0.30
2023-03-11T18:07:03.717Z,0.20
2023-03-11T18:12:07.148Z,0.20
2023-03-11T18:17:09.892Z,0.20
2023-03-11T18:22:13.743Z,0.30
2023-03-11T18:27:16.994Z,0.20
2023-03-11T18:32:21.192Z,0.10
2023-03-11T18:37:25.280Z,0.20
2023-03-11T18:42:28.288Z,0.20
2023-03-11T18:47:35.777Z,0.20
2023-03-11T18:52:38.758Z,0.20
2023-03-11T18:57:43.454Z,0.10
2023-03-11T19:02:49.994Z,0.10
2023-03-11T19:07:53.259Z,0.20
2023-03-11T19:12:56.291Z,0.10
2023-03-11T19:18:06.608Z,0.10
2023-03-11T19:23:09.658Z,0.20
2023-03-11T19:28:12.348Z,0.10
2023-03-11T19:33:15.117Z,0.00
2023-03-11T19:38:17.847Z,0.00
2023-03-11T19:43:21.396Z,0.00
2023-03-11T19:48:24.698Z,0.00
2023-03-11T19:53:27.716Z,0.00
2023-03-11T19:58:31.057Z,0.00
2023-03-11T20:03:33.726Z,-0.10
2023-03-11T20:08:37.553Z,-0.30
2023-03-11T20:13:42.931Z,-0.30
2023-03-11T20:18:48.978Z,-0.30
2023-03-11T20:23:54.925Z,-0.30
2023-03-11T20:28:58.019Z,-0.30
2023-03-11T20:34:01.402Z,-0.40
2023-03-11T20:39:07.324Z,-0.60
2023-03-11T20:44:13.735Z,-0.70
2023-03-11T20:49:16.726Z,-0.80
2023-03-11T20:54:19.696Z,-0.90
2023-03-11T20:59:22.640Z,-1.00
2023-03-11T21:04:25.758Z,-1.10
2023-03-11T21:09:28.539Z,-1.10
2023-03-11T21:14:31.434Z,-1.10
2023-03-11T21:19:34.466Z,-1.10
2023-03-11T21:24:37.411Z,-1.00
2023-03-11T21:29:40.625Z,-0.90
2023-03-11T21:34:43.333Z,-0.70
2023-03-11T21:39:45.978Z,-0.60
2023-03-11T21:44:48.581Z,-0.60
2023-03-11T21:49:51.590Z,-0.50
2023-03-11T21:54:54.553Z,-0.50
2023-03-11T21:59:57.432Z,-0.40
2023-03-11T22:05:00.251Z,-0.40
2023-03-11T22:10:02.998Z,-0.40
2023-03-11T22:15:06.474Z,-0.30
2023-03-11T22:20:10.372Z,-0.30
2023-03-11T22:25:13.323Z,-0.30
2023-03-11T22:30:15.951Z,-0.30
2023-03-11T22:35:18.901Z,-0.30
2023-03-11T22:40:21.577Z,-0.30
2023-03-11T22:45:24.505Z,-0.30
2023-03-11T22:50:27.205Z,-0.30
2023-03-11T22:55:29.857Z,-0.20
2023-03-11T23:00:32.557Z,-0.20
2023-03-11T23:05:42.041Z,-0.10
2023-03-11T23:10:47.182Z,-0.10
2023-03-11T23:15:49.947Z,-0.20
2023-03-11T23:20:52.687Z,-0.20
2023-03-11T23:25:55.488Z,-0.20
2023-03-11T23:31:03.463Z,-0.20
2023-03-11T23:36:08.844Z,-0.30
2023-03-11T23:41:14.477Z,-0.30
2023-03-11T23:46:17.164Z,-0.40
2023-03-11T23:51:20.021Z,-0.40
2023-03-11T23:56:22.811Z,-0.40
